Lombardy, Mississippi
Current Conditions -  °F | °C
As of 4:15 PM on Sunday 23 Nov 2014 (Local Time) from KRNV Reporting Station
Overcast Overcast  
Wind Chill: 63°   Ceiling: 2600
Heat Index: 63°   Visibility: 10mi
Dew Point: 62°   Wind: 12mph
Humidity: 96%   Direction: 210°SSW
Pressure: 29.43"   Gusts: NA
Location:  33.976°N, 90.7349°W
Report Text: KRNV 232215Z AUTO 21010KT 10SM SCT017 BKN026 OVC032 17/17 A2943 RMK AO2 T01720166
Loading
Personal Weather Stations






























Interactive Weather Map New forecast layout! Learn more

10-Day Weather Forecast

Advertisements
Track Severe Weather on mobile